Data for 07/22/2006

Time Sea-Level Adjusted Pressure Absolute Pressure Temperature Relative Humidity Dew Point   
(mb) (inHg) (mb) (inHg) (C) (F) (%) (C) (F)
00:05 1027 30.33 856 25.28 22.9 73.3 29 4.2 39.6
00:10 1027 30.33 856 25.28 22.8 73 29 4.1 39.4
00:15 1027 30.33 856 25.28 22.8 73 29 4.1 39.4
00:20 1027 30.33 856 25.28 22.7 72.9 29 4.1 39.4
00:25 1027 30.33 856 25.28 22.7 72.8 29 4.1 39.4
00:30 1027 30.33 856 25.28 22.6 72.7 30 4.2 39.6
00:35 1027 30.33 856 25.28 22.5 72.4 30 4.1 39.4
00:40 1027 30.33 856 25.28 22.4 72.3 30 4.3 39.7
00:45 1027 30.33 856 25.28 22.3 72.2 30 4.3 39.8
00:50 1027 30.33 856 25.28 22.3 72.1 31 4.4 39.9
00:55 1027 30.33 856 25.28 22.3 72.1 31 4.5 40.1
01:00 1027 30.33 856 25.28 22.1 71.8 31 4.5 40.1
01:05 1027 30.33 856 25.28 22 71.5 32 4.6 40.2
01:10 1027 30.33 856 25.28 22 71.5 31 4.5 40.1
01:15 1027 30.33 856 25.28 21.9 71.4 32 4.6 40.2
01:20 1027 30.33 856 25.28 21.9 71.4 32 4.6 40.2
01:25 1027 30.33 856 25.28 22 71.6 32 4.6 40.2
01:30 1027 30.33 856 25.28 22.1 71.7 32 4.8 40.7
01:35 1027 30.33 856 25.28 21.9 71.3 33 4.9 40.8
01:40 1027 30.33 856 25.28 21.8 71.2 33 4.9 40.9
01:45 1027 30.33 856 25.28 21.7 71.1 33 5 40.9
01:50 1027 30.33 856 25.28 21.8 71.2 33 5 41.1
01:55 1027 30.33 856 25.28 21.8 71.2 33 5.1 41.1
02:00 1027 30.33 856 25.28 21.7 71 33 5.1 41.1
02:05 1027 30.33 856 25.28 21.5 70.8 34 5.2 41.3
02:10 1027 30.33 856 25.28 21.4 70.6 34 5.3 41.5
02:15 1027 30.33 856 25.28 21.3 70.3 35 5.2 41.4
02:20 1027 30.33 856 25.28 21.2 70.2 35 5.3 41.5
02:25 1027 30.33 856 25.28 21.3 70.3 35 5.4 41.6
02:30 1027 30.33 856 25.28 21.1 70 35 5.3 41.6
02:35 1027 30.33 856 25.28 21.1 70 35 5.4 41.7
02:40 1027 30.33 856 25.28 21 69.9 36 5.6 42
02:45 1027 30.33 856 25.28 21.1 69.9 36 5.5 41.8
02:50 1027 30.33 856 25.28 21 69.9 36 5.6 42.1
02:55 1027 30.33 856 25.28 21 69.7 37 5.7 42.3
03:00 1027 30.33 856 25.28 20.8 69.5 37 5.9 42.6
03:05 1027 30.33 856 25.28 20.6 69.1 38 6 42.7
03:10 1027 30.33 856 25.28 20.5 68.8 39 6.1 42.9
03:15 1027 30.33 856 25.28 20.5 68.9 38 5.9 42.6
03:20 1027 30.33 856 25.28 20.4 68.8 39 6 42.8
03:25 1027 30.33 856 25.28 20.2 68.4 39 6.1 42.9
03:30 1027 30.33 856 25.28 20 68 40 6.1 43
03:35 1027 30.33 856 25.28 19.9 67.8 40 6.1 43
03:40 1027 30.33 856 25.28 19.9 67.7 40 6.1 43.1
03:45 1027 30.33 856 25.28 19.7 67.5 41 6.3 43.3
03:50 1027 30.33 856 25.28 19.5 67.1 42 6.3 43.3
03:55 1027 30.33 856 25.28 19.2 66.6 43 6.4 43.5
04:00 1027 30.33 856 25.28 19 66.2 43 6.2 43.2
04:05 1027 30.33 856 25.28 19 66.2 43 6.2 43.2
04:10 1027 30.33 856 25.28 18.9 66.1 43 6.3 43.3
04:15 1027 30.33 856 25.28 18.9 66.1 43 6.2 43.2
04:20 1027 30.33 856 25.28 19 66.2 43 6.2 43.1
04:25 1027 30.33 856 25.28 19 66.2 43 6.2 43.1
04:30 1027 30.33 856 25.28 19.1 66.3 43 6.2 43.2
04:35 1027 30.33 856 25.28 19 66.1 43 6.3 43.4
04:40 1027 30.33 856 25.28 18.9 65.9 44 6.3 43.4
04:45 1027 30.33 856 25.28 18.8 65.8 44 6.3 43.3
04:50 1027 30.33 856 25.28 18.8 65.8 43 6.2 43.1
04:55 1027 30.33 856 25.28 19 66.1 42 6 42.8
05:00 1027 30.33 856 25.28 19 66.3 42 6.1 43
05:05 1027 30.33 856 25.28 19.2 66.5 42 6 42.8
05:10 1027 30.33 856 25.28 19.3 66.8 41 6 42.9
05:15 1027 30.33 856 25.28 19.2 66.6 42 6.3 43.3
05:20 1027 30.33 856 25.28 19 66.2 43 6.2 43.2
05:25 1027 30.33 856 25.28 18.7 65.7 43 6.2 43.2
05:30 1027 30.33 856 25.28 18.6 65.5 44 6.2 43.1
05:35 1027 30.33 856 25.28 18.6 65.4 44 6.3 43.3
05:40 1027 30.33 856 25.28 18.5 65.2 45 6.3 43.4
05:45 1027 30.33 856 25.28 18.4 65.2 44 6.2 43.1
05:50 1027 30.33 856 25.28 18.3 65 45 6.3 43.4
05:55 1027 30.33 856 25.28 18.1 64.6 46 6.4 43.5
06:00 1027 30.33 856 25.28 18.1 64.5 46 6.4 43.5
06:05 1027 30.33 856 25.28 17.9 64.2 46 6.4 43.5
06:10 1027 30.33 856 25.28 17.7 63.9 47 6.5 43.7
06:15 1027 30.33 856 25.28 17.6 63.7 47 6.4 43.6
06:20 1027 30.33 856 25.28 17.8 64 47 6.4 43.5
06:25 1027 30.33 856 25.28 17.9 64.2 47 6.4 43.5
06:30 1027 30.33 856 25.28 17.8 64.1 47 6.5 43.7
06:35 1027 30.33 856 25.28 17.9 64.2 47 6.5 43.6
06:40 1027 30.33 856 25.28 17.8 64.1 47 6.5 43.7
06:45 1027 30.33 856 25.28 17.9 64.2 46 6.3 43.4
06:50 1027 30.33 856 25.28 18 64.5 47 6.6 43.9
06:55 1027 30.33 856 25.28 18.1 64.5 47 6.8 44.2
07:00 1027 30.33 856 25.28 18.3 64.9 46 6.6 43.8
07:05 1027 30.33 856 25.28 18.7 65.6 45 6.6 43.8
07:10 1027 30.33 856 25.28 18.9 66.1 45 6.8 44.2
07:15 1027 30.33 856 25.28 18.6 65.6 49 7.9 46.2
07:20 1027 30.33 856 25.28 17.6 63.6 50 7.3 45.1
07:25 1027 30.33 856 25.28 17.7 63.8 51 7.6 45.7
07:30 1027 30.33 856 25.28 17.5 63.6 52 7.8 46
07:35 1027 30.33 856 25.28 17.8 64 50 7.5 45.5
07:40 1027 30.33 856 25.28 18.4 65.2 46 6.8 44.3
07:45 1027 30.33 856 25.28 19.5 67 42 6.5 43.7
07:50 1027 30.33 856 25.28 20 68 41 6.6 43.8
07:55 1027 30.33 856 25.28 20.4 68.7 40 6.5 43.6
08:00 1027 30.33 856 25.28 20.6 69 40 6.6 43.8
08:05 1027 30.33 856 25.28 20.8 69.5 38 6.3 43.3
08:10 1027 30.33 856 25.28 21 69.8 38 6.4 43.5
08:15 1027 30.33 856 25.28 21.1 70 38 6.3 43.4
08:20 1027 30.33 856 25.28 21.3 70.3 38 6.4 43.6
08:25 1027 30.33 856 25.28 21.4 70.5 38 6.7 44
08:30 1027 30.33 856 25.28 21.6 70.9 37 6.3 43.4
08:35 1027 30.33 856 25.28 21.8 71.2 36 6.2 43.1
08:40 1027 30.33 856 25.28 22 71.6 35 6.1 43
08:45 1026 30.3 856 25.28 22.1 71.8 35 6.2 43.2
08:50 1026 30.3 856 25.28 22.1 71.9 35 6.1 42.9
08:55 1026 30.3 856 25.28 22.4 72.3 35 6.4 43.5
09:00 1026 30.3 856 25.28 22.7 72.9 34 6.4 43.4
09:05 1026 30.3 856 25.28 22.9 73.2 33 6.1 43
09:10 1026 30.3 856 25.28 23.1 73.7 34 6.5 43.7
09:15 1026 30.3 855 25.25 23.1 73.6 34 6.8 44.2
09:20 1026 30.3 856 25.28 23.5 74.4 33 6.5 43.8
09:25 1026 30.3 855 25.25 23.8 74.9 32 6.4 43.4
09:30 1026 30.3 855 25.25 23.9 75.1 32 6.4 43.5
09:35 1026 30.3 855 25.25 24.3 75.7 31 6.4 43.6
09:40 1026 30.3 855 25.25 24.4 75.9 31 6.2 43.1
09:45 1026 30.3 855 25.25 24.5 76 30 6.2 43.2
09:50 1026 30.3 855 25.25 24.9 76.8 29 5.9 42.6
09:55 1026 30.3 855 25.25 24.9 76.8 29 5.8 42.5
10:00 1026 30.3 855 25.25 25.3 77.5 30 6.6 43.8
10:05 1026 30.3 855 25.25 25.5 78 28 5.8 42.4
10:10 1026 30.3 855 25.25 25.7 78.3 28 6.4 43.4
10:15 1026 30.3 855 25.25 26 78.9 29 6.9 44.4
10:20 1026 30.3 855 25.25 26.5 79.6 30 7.7 45.9
10:25 1026 30.3 855 25.25 26 78.9 30 7.3 45.1
10:30 1026 30.3 855 25.25 26 78.8 30 7.5 45.5
10:35 1026 30.3 855 25.25 26.1 78.9 29 7.1 44.8
10:40 1026 30.3 855 25.25 26.2 79.1 29 7.2 44.9
10:45 1026 30.3 855 25.25 26 78.7 30 7.3 45.2
10:50 1026 30.3 855 25.25 26.2 79.1 29 7.1 44.8
10:55 1026 30.3 855 25.25 26.1 79.1 29 7.1 44.8
11:00 1026 30.3 855 25.25 26.3 79.3 29 7 44.6
11:05 1026 30.3 855 25.25 26.2 79.1 29 7 44.6
11:10 1026 30.3 855 25.25 25.9 78.7 30 7.3 45.1
11:15 1026 30.3 855 25.25 26.6 79.8 28 7.1 44.7
11:20 1025 30.27 855 25.25 27 80.5 27 6.9 44.4
11:25 1025 30.27 855 25.25 27.1 80.8 28 7.5 45.4
11:30 1025 30.27 855 25.25 27.6 81.7 27 7.4 45.3
11:35 1025 30.27 855 25.25 28.1 82.6 27 7.8 46
11:40 1025 30.27 855 25.25 27.5 81.6 27 7.1 44.9
11:45 1025 30.27 854 25.22 28.2 82.8 27 7.7 45.9
11:50 1025 30.27 854 25.22 28.8 83.9 25 7.2 45
11:55 1025 30.27 854 25.22 28 82.4 27 7.6 45.7
12:00 1025 30.27 854 25.22 27.9 82.2 27 7.5 45.5
12:05 1025 30.27 854 25.22 28.9 84 25 7.2 45
12:10 1025 30.27 854 25.22 28.6 83.6 26 7.6 45.7
12:15 1025 30.27 854 25.22 29 84.2 25 7.5 45.4
12:20 1025 30.27 854 25.22 28.9 84 25 7.4 45.4
12:25 1025 30.27 854 25.22 29.5 85.1 25 7.8 46
12:30 1025 30.27 854 25.22 29.7 85.5 24 7.6 45.7
12:35 1025 30.27 854 25.22 29.9 85.8 24 7.5 45.6
12:40 1025 30.27 854 25.22 29.5 85.2 25 7.6 45.8
12:45 1025 30.27 854 25.22 29.9 85.8 25 7.8 46.1
12:50 1025 30.27 854 25.22 30.7 87.3 23 7.6 45.7
12:55 1025 30.27 854 25.22 30.3 86.5 24 7.7 45.8
13:00 1024 30.24 854 25.22 30.5 87 24 7.9 46.2
13:05 1024 30.24 854 25.22 30.9 87.7 23 7.7 45.9
13:10 1024 30.24 854 25.22 31 87.8 22 7.3 45.2
13:15 1024 30.24 853 25.19 31.3 88.3 23 8.3 47
13:20 1024 30.24 853 25.19 31.5 88.7 22 7.9 46.1
13:25 1024 30.24 853 25.19 31.4 88.5 23 7.9 46.1
13:30 1024 30.24 853 25.19 30.5 86.9 23 7.5 45.5
13:35 1024 30.24 853 25.19 31.3 88.3 22 7.3 45.1
13:40 1024 30.24 853 25.19 32.4 90.3 21 7.8 46
13:45 1024 30.24 853 25.19 31.2 88.2 23 7.9 46.2
13:50 1024 30.24 853 25.19 31.5 88.6 21 7 44.6
13:55 1024 30.24 853 25.19 32.5 90.5 20 6.7 44.1
14:00 1024 30.24 853 25.19 32.6 90.7 21 7.6 45.8
14:05 1024 30.24 853 25.19 31.9 89.4 22 7.6 45.6
14:10 1024 30.24 853 25.19 32.3 90.2 21 7.7 45.8
14:15 1024 30.24 853 25.19 33.5 92.3 20 7.8 46.1
14:20 1024 30.24 853 25.19 34 93.2 19 7.8 46
14:25 1024 30.24 853 25.19 33.6 92.5 19 7.6 45.6
14:30 1024 30.24 853 25.19 33.9 93.1 19 7.7 45.8
14:35 1024 30.24 853 25.19 33.8 92.8 21 8.5 47.3
14:40 1023 30.21 853 25.19 33.9 93.1 18 6.9 44.5
14:45 1023 30.21 853 25.19 34.2 93.6 16 5.6 42
14:50 1023 30.21 853 25.19 34 93.2 17 6.1 42.9
14:55 1023 30.21 852 25.16 33.6 92.5 16 5 41
15:00 1023 30.21 852 25.16 33.3 92 16 4.5 40
15:05 1023 30.21 852 25.16 33.4 92.2 17 5.8 42.5
15:10 1023 30.21 852 25.16 34 93.1 15 4.6 40.2
15:15 1023 30.21 852 25.16 33.5 92.2 15 4 39.3
15:20 1023 30.21 852 25.16 34 93.3 15 4.6 40.3
15:25 1023 30.21 852 25.16 35 95.1 15 4.6 40.3
15:30 1023 30.21 852 25.16 35.2 95.3 15 5.5 41.8
15:35 1023 30.21 852 25.16 35.3 95.6 15 5.2 41.4
15:40 1023 30.21 852 25.16 35.3 95.6 14 4.6 40.3
15:45 1023 30.21 852 25.16 35.2 95.4 15 5 41
15:50 1023 30.21 852 25.16 34.4 93.8 15 4.9 40.8
15:55 1022 30.18 852 25.16 34.4 93.8 16 5 41.1
16:00 1022 30.18 852 25.16 33.9 92.9 14 3.4 38.1
16:05 1022 30.18 851 25.13 34.1 93.4 15 4.3 39.8
16:10 1022 30.18 851 25.13 34.7 94.4 15 5 41
16:15 1022 30.18 851 25.13 35.2 95.4 15 5.1 41.1
16:20 1022 30.18 851 25.13 34.8 94.6 16 5.5 41.9
16:25 1022 30.18 851 25.13 35.5 95.9 15 5.6 42.1
16:30 1022 30.18 851 25.13 35.5 95.8 15 5.1 41.2
16:35 1022 30.18 851 25.13 34.9 94.7 15 5.2 41.4
16:40 1022 30.18 851 25.13 34.6 94.2 15 5 41
16:45 1022 30.18 851 25.13 34.8 94.6 15 5 41.1
16:50 1022 30.18 851 25.13 34.8 94.7 15 5.2 41.3
16:55 1022 30.18 851 25.13 35.6 96 15 5.8 42.4
17:00 1022 30.18 851 25.13 35.9 96.7 15 5.9 42.7
17:05 1022 30.18 851 25.13 35.9 96.6 15 5.9 42.6
17:10 1021 30.15 851 25.13 35.5 95.9 15 5.2 41.4
17:15 1021 30.15 851 25.13 34.3 93.8 16 5 41
17:20 1021 30.15 851 25.13 34.1 93.5 15 4.3 39.8
17:25 1021 30.15 850 25.1 34 93.2 16 4.8 40.6
17:30 1021 30.15 850 25.1 34.2 93.6 15 4.4 39.9
17:35 1021 30.15 850 25.1 34.1 93.5 15 4.3 39.7
17:40 1021 30.15 850 25.1 34.5 94.2 14 3.9 39
17:45 1021 30.15 850 25.1 34.4 94 15 4.6 40.2
17:50 1021 30.15 850 25.1 34.7 94.5 14 3.8 38.8
17:55 1021 30.15 850 25.1 35.3 95.5 14 3.9 39.1
18:00 1021 30.15 850 25.1 34.8 94.7 15 4.4 39.9
18:05 1021 30.15 850 25.1 34.5 94.1 15 4.1 39.4
18:10 1021 30.15 850 25.1 34.6 94.2 15 4.3 39.8
18:15 1021 30.15 850 25.1 35.2 95.4 14 4.3 39.7
18:20 1021 30.15 850 25.1 35.3 95.6 15 4.9 40.8
18:25 1021 30.15 850 25.1 35 95 14 3.8 38.9
18:30 1021 30.15 850 25.1 34.8 94.7 14 4.2 39.5
18:35 1021 30.15 850 25.1 35.1 95.1 14 4.5 40.1
18:40 1021 30.15 850 25.1 35.2 95.4 14 4.1 39.3
18:45 1020 30.12 850 25.1 34.6 94.3 14 4.1 39.4
18:50 1020 30.12 850 25.1 34.7 94.5 14 3.4 38.1
18:55 1020 30.12 850 25.1 34.9 94.9 14 4 39.2
19:00 1020 30.12 850 25.1 34.7 94.5 15 5.2 41.4
19:05 1020 30.12 850 25.1 34.6 94.3 14 4.1 39.4
19:10 1020 30.12 850 25.1 34.7 94.4 15 4.7 40.5
19:15 1020 30.12 850 25.1 34.7 94.4 15 4.5 40.2
19:20 1020 30.12 850 25.1 34 93.1 18 6.8 44.2
19:25 1020 30.12 849 25.07 33.2 91.7 19 6.9 44.4
19:30 1020 30.12 849 25.07 32.6 90.7 20 6.8 44.3
19:35 1020 30.12 849 25.07 32.2 90 19 6.3 43.3
19:40 1020 30.12 849 25.07 32.1 89.7 19 6 42.8
19:45 1020 30.12 849 25.07 31.9 89.4 20 6.5 43.7
19:50 1020 30.12 849 25.07 31.6 89 20 6.4 43.4
19:55 1020 30.12 849 25.07 31.4 88.5 20 6.4 43.5
20:00 1020 30.12 849 25.07 31.2 88.2 21 6.4 43.6
20:05 1020 30.12 849 25.07 31 87.8 20 6.1 43
20:10 1020 30.12 849 25.07 30.7 87.3 21 6.2 43.1
20:15 1020 30.12 849 25.07 30.6 87.1 20 5.8 42.4
20:20 1020 30.12 849 25.07 30.4 86.8 20 5.5 41.9
20:25 1020 30.12 849 25.07 30.4 86.6 20 4.9 40.8
20:30 1020 30.12 849 25.07 30.3 86.5 19 4.7 40.5
20:35 1020 30.12 849 25.07 30.2 86.4 20 5 40.9
20:40 1020 30.12 849 25.07 30 86 20 5.2 41.4
20:45 1020 30.12 849 25.07 29.7 85.4 21 5.3 41.5
20:50 1020 30.12 849 25.07 29.4 85 21 5.2 41.3
20:55 1020 30.12 849 25.07 29.3 84.7 21 4.8 40.6
21:00 1020 30.12 850 25.1 29.3 84.7 21 4.8 40.7
21:05 1020 30.12 850 25.1 29 84.3 21 4.9 40.8
21:10 1020 30.12 850 25.1 28.8 83.9 21 4.6 40.3
21:15 1020 30.12 850 25.1 28.8 83.9 21 4.6 40.3
21:20 1020 30.12 850 25.1 28.9 84.1 21 4.5 40
21:25 1020 30.12 850 25.1 28.9 84.1 21 4.5 40
21:30 1021 30.15 850 25.1 28.9 84 21 4.4 39.9
21:35 1021 30.15 850 25.1 28.9 84.1 20 4.2 39.6
21:40 1021 30.15 850 25.1 29 84.1 20 3.9 39
21:45 1021 30.15 850 25.1 28.8 83.9 20 4.2 39.6
21:50 1021 30.15 850 25.1 28.7 83.6 20 4.1 39.3
21:55 1021 30.15 850 25.1 28.7 83.7 20 4.1 39.3
22:00 1021 30.15 850 25.1 28.6 83.5 21 4.2 39.6
22:05 1021 30.15 850 25.1 28.5 83.3 20 4 39.1
22:10 1021 30.15 850 25.1 28.4 83 21 4.1 39.4
22:15 1021 30.15 850 25.1 28.2 82.8 21 3.8 38.9
22:20 1021 30.15 850 25.1 28.1 82.5 21 3.8 38.9
22:25 1021 30.15 850 25.1 28 82.4 21 3.7 38.6
22:30 1021 30.15 850 25.1 28 82.4 20 3.3 38
22:35 1021 30.15 850 25.1 28 82.4 20 3.4 38.1
22:40 1021 30.15 850 25.1 27.9 82.3 20 3.2 37.8
22:45 1021 30.15 850 25.1 28 82.4 19 2.8 37.1
22:50 1021 30.15 850 25.1 28.1 82.5 20 3 37.5
22:55 1021 30.15 850 25.1 27.9 82.3 20 3 37.4
23:00 1021 30.15 850 25.1 28 82.5 19 2.9 37.3
23:05 1021 30.15 850 25.1 27.9 82.3 20 2.9 37.3
23:10 1021 30.15 850 25.1 27.9 82.2 20 2.9 37.3
23:15 1021 30.15 850 25.1 27.8 82 20 2.8 37.1
23:20 1021 30.15 850 25.1 27.9 82.3 19 2.8 37.1
23:25 1021 30.15 850 25.1 27.8 82.1 20 2.9 37.3
23:30 1021 30.15 850 25.1 27.7 81.9 20 3.1 37.6
23:35 1021 30.15 850 25.1 27.5 81.6 20 3 37.4
23:40 1021 30.15 850 25.1 27.4 81.4 21 3.1 37.7
23:45 1021 30.15 850 25.1 27.3 81.2 21 3.3 37.9
23:50 1021 30.15 850 25.1 27.3 81.1 21 3.2 37.7
23:55 1021 30.15 850 25.1 27.2 81 21 3.2 37.8
24:00 1021 30.15 850 25.1 27.1 80.8 21 3.1 37.6